createdAt,value
2017-06-12T00:00:24.874Z,21.64
2017-06-12T00:01:33.834Z,21.61
2017-06-12T00:02:43.319Z,21.69
2017-06-12T00:03:52.278Z,21.62
2017-06-12T00:05:01.851Z,21.59
2017-06-12T00:06:10.856Z,21.65
2017-06-12T00:07:21.047Z,21.58
2017-06-12T00:08:30.103Z,21.58
2017-06-12T00:09:39.771Z,21.58
2017-06-12T00:10:48.732Z,21.61
2017-06-12T00:11:58.811Z,21.62
2017-06-12T00:13:07.831Z,21.61
2017-06-12T00:14:17.686Z,21.61
2017-06-12T00:15:26.693Z,21.54
2017-06-12T00:16:36.330Z,21.56
2017-06-12T00:17:45.401Z,21.59
2017-06-12T00:18:55.017Z,21.64
2017-06-12T00:20:03.978Z,21.64
2017-06-12T00:21:13.704Z,21.64
2017-06-12T00:22:22.662Z,21.64
2017-06-12T00:23:32.489Z,21.65
2017-06-12T00:24:42.427Z,21.71
2017-06-12T00:25:52.757Z,21.64
2017-06-12T00:27:03.247Z,21.61
2017-06-12T00:28:14.135Z,21.61
2017-06-12T00:29:23.213Z,21.59
2017-06-12T00:30:32.568Z,21.59
2017-06-12T00:31:41.621Z,21.69
2017-06-12T00:32:51.437Z,21.62
2017-06-12T00:34:00.394Z,21.58
2017-06-12T00:35:09.709Z,21.64
2017-06-12T00:36:18.665Z,21.62
2017-06-12T00:37:27.854Z,21.54
2017-06-12T00:38:36.859Z,21.59
2017-06-12T00:39:46.534Z,21.61
2017-06-12T00:40:55.650Z,21.61
2017-06-12T00:42:05.106Z,21.54
2017-06-12T00:43:14.072Z,21.5
2017-06-12T00:44:23.807Z,21.53
2017-06-12T00:45:32.765Z,21.54
2017-06-12T00:46:42.365Z,21.56
2017-06-12T00:47:51.323Z,21.58
2017-06-12T00:49:01.134Z,21.59
2017-06-12T00:50:10.167Z,21.54
2017-06-12T00:51:20.023Z,21.53
2017-06-12T00:52:28.994Z,21.54
2017-06-12T00:53:38.808Z,21.52
2017-06-12T00:54:47.938Z,21.56
2017-06-12T00:55:57.434Z,21.58
2017-06-12T00:57:06.481Z,21.58
2017-06-12T00:58:16.172Z,21.47
2017-06-12T00:59:25.225Z,21.52
2017-06-12T01:00:35.155Z,21.49
2017-06-12T01:01:44.165Z,21.43
2017-06-12T01:02:54.082Z,21.44
2017-06-12T01:04:03.173Z,21.52
2017-06-12T01:05:12.959Z,21.46
2017-06-12T01:06:21.916Z,21.5
2017-06-12T01:07:31.491Z,21.46
2017-06-12T01:08:40.451Z,21.43
2017-06-12T01:09:51.055Z,21.4
2017-06-12T01:11:00.008Z,21.43
2017-06-12T01:12:09.810Z,21.35
2017-06-12T01:13:18.770Z,21.44
2017-06-12T01:14:28.473Z,21.46
2017-06-12T01:15:38.162Z,21.52
2017-06-12T01:16:47.401Z,21.49
2017-06-12T01:17:56.363Z,21.54
2017-06-12T01:19:05.979Z,21.46
2017-06-12T01:20:14.937Z,21.56
2017-06-12T01:21:24.885Z,21.56
2017-06-12T01:22:33.840Z,21.49
2017-06-12T01:23:43.457Z,21.47
2017-06-12T01:24:52.421Z,21.49
2017-06-12T01:26:02.351Z,21.47
2017-06-12T01:27:11.315Z,21.47
2017-06-12T01:28:21.372Z,21.54
2017-06-12T01:29:30.331Z,21.53
2017-06-12T01:30:40.216Z,21.54
2017-06-12T01:31:49.176Z,21.58
2017-06-12T01:32:58.944Z,21.56
2017-06-12T01:34:07.930Z,21.62
2017-06-12T01:35:17.838Z,21.62
2017-06-12T01:36:26.796Z,21.59
2017-06-12T01:37:36.682Z,21.59
2017-06-12T01:38:45.673Z,21.64
2017-06-12T01:39:55.756Z,21.68
2017-06-12T01:41:04.712Z,21.58
2017-06-12T01:42:14.071Z,21.54
2017-06-12T01:43:23.159Z,21.61
2017-06-12T01:44:33.163Z,21.59
2017-06-12T01:45:42.140Z,21.59
2017-06-12T01:46:51.885Z,21.59
2017-06-12T01:48:00.983Z,21.62
2017-06-12T01:49:10.486Z,21.59
2017-06-12T01:50:19.452Z,21.64
2017-06-12T01:51:29.207Z,21.54
2017-06-12T01:52:38.162Z,21.64
2017-06-12T01:53:48.204Z,21.61
2017-06-12T01:54:57.247Z,21.62
2017-06-12T01:56:07.069Z,21.64
2017-06-12T01:57:16.026Z,21.62
2017-06-12T01:58:27.720Z,21.61
2017-06-12T01:59:36.682Z,21.67
2017-06-12T02:00:47.017Z,21.64
2017-06-12T02:01:57.180Z,21.61
2017-06-12T02:03:06.824Z,21.56
2017-06-12T02:04:17.687Z,21.42
2017-06-12T02:05:26.699Z,21.47
2017-06-12T02:06:36.893Z,21.37
2017-06-12T02:07:45.856Z,21.35
2017-06-12T02:08:55.700Z,21.27
2017-06-12T02:10:04.664Z,21.28
2017-06-12T02:11:14.501Z,21.27
2017-06-12T02:12:23.459Z,21.25
2017-06-12T02:13:34.145Z,21.19
2017-06-12T02:14:43.239Z,21.16
2017-06-12T02:15:52.264Z,21.19
2017-06-12T02:17:01.273Z,21.17
2017-06-12T02:18:12.528Z,21.19
2017-06-12T02:19:21.525Z,21.19
2017-06-12T02:20:31.186Z,21.19
2017-06-12T02:21:40.143Z,21.16
2017-06-12T02:22:50.526Z,21.13
2017-06-12T02:23:59.488Z,21.16
2017-06-12T02:25:09.145Z,21.1
2017-06-12T02:26:19.314Z,21.16
2017-06-12T02:27:28.594Z,21.13
2017-06-12T02:28:38.292Z,21.12
2017-06-12T02:29:47.250Z,21.21
2017-06-12T02:30:57.291Z,21.12
2017-06-12T02:32:06.247Z,21.12
2017-06-12T02:33:15.205Z,21.22
2017-06-12T02:34:24.215Z,21.21
2017-06-12T02:35:33.182Z,21.13
2017-06-12T02:36:42.142Z,21.17
2017-06-12T02:37:51.103Z,21.21
2017-06-12T02:39:00.145Z,21.17
2017-06-12T02:40:09.128Z,21.17
2017-06-12T02:41:18.092Z,21.17
2017-06-12T02:42:27.045Z,21.21
2017-06-12T02:43:36.006Z,21.14
2017-06-12T02:44:44.965Z,21.16
2017-06-12T02:45:53.924Z,21.17
2017-06-12T02:47:02.886Z,21.14
2017-06-12T02:48:11.846Z,21.17
2017-06-12T02:49:20.806Z,21.14
2017-06-12T02:50:29.764Z,21.19
2017-06-12T02:51:38.725Z,21.25
2017-06-12T02:52:47.686Z,21.25
2017-06-12T02:53:56.733Z,21.27
2017-06-12T02:55:05.691Z,21.24
2017-06-12T02:56:14.674Z,21.22
2017-06-12T02:57:23.643Z,21.17
2017-06-12T02:58:32.608Z,21.28
2017-06-12T02:59:41.571Z,21.21
2017-06-12T03:00:50.529Z,21.24
2017-06-12T03:01:59.485Z,21.25
2017-06-12T03:03:08.821Z,21.27
2017-06-12T03:04:17.780Z,21.29
2017-06-12T03:05:26.741Z,21.22
2017-06-12T03:06:35.699Z,21.29
2017-06-12T03:07:44.658Z,21.28
2017-06-12T03:08:53.611Z,21.28
2017-06-12T03:10:02.571Z,21.25
2017-06-12T03:11:11.531Z,21.31
2017-06-12T03:12:20.583Z,21.25
2017-06-12T03:13:29.541Z,21.27
2017-06-12T03:14:38.555Z,21.31
2017-06-12T03:15:47.514Z,21.31
2017-06-12T03:16:56.477Z,21.24
2017-06-12T03:18:05.436Z,21.34
2017-06-12T03:19:14.397Z,21.22
2017-06-12T03:20:23.443Z,21.32
2017-06-12T03:21:32.405Z,21.28
2017-06-12T03:22:41.364Z,21.21
2017-06-12T03:23:50.324Z,21.25
2017-06-12T03:24:59.291Z,21.24
2017-06-12T03:26:08.338Z,21.22
2017-06-12T03:27:17.296Z,21.22
2017-06-12T03:28:26.265Z,21.19
2017-06-12T03:29:35.223Z,21.21
2017-06-12T03:30:44.187Z,21.14
2017-06-12T03:31:53.149Z,21.17
2017-06-12T03:33:02.105Z,21.16
2017-06-12T03:34:11.066Z,21.28
2017-06-12T03:35:20.023Z,21.25
2017-06-12T03:36:28.985Z,21.22
2017-06-12T03:37:38.031Z,21.14
2017-06-12T03:38:46.989Z,21.31
2017-06-12T03:39:56.031Z,21.24
2017-06-12T03:41:04.990Z,21.31
2017-06-12T03:42:13.954Z,21.28
2017-06-12T03:43:22.966Z,21.28
2017-06-12T03:44:31.926Z,21.22
2017-06-12T03:45:40.885Z,21.22
2017-06-12T03:46:49.842Z,21.34
2017-06-12T03:47:58.798Z,21.25
2017-06-12T03:49:07.807Z,21.32
2017-06-12T03:50:19.799Z,21.22
2017-06-12T03:51:28.759Z,21.37
2017-06-12T03:52:37.762Z,21.31
2017-06-12T03:53:46.722Z,21.42
2017-06-12T03:54:56.021Z,21.29
2017-06-12T03:56:04.985Z,21.35
2017-06-12T03:57:13.945Z,21.34
2017-06-12T03:58:22.905Z,21.37
2017-06-12T03:59:31.860Z,21.29
2017-06-12T04:00:41.065Z,21.28
2017-06-12T04:01:50.113Z,21.22
2017-06-12T04:02:59.073Z,21.34
2017-06-12T04:04:08.032Z,21.24
2017-06-12T04:05:16.994Z,21.17
2017-06-12T04:06:25.954Z,21.22
2017-06-12T04:07:34.913Z,21.29
2017-06-12T04:08:43.871Z,21.28
2017-06-12T04:09:52.827Z,21.24
2017-06-12T04:11:01.786Z,21.13
2017-06-12T04:12:10.747Z,21.17
2017-06-12T04:13:20.030Z,21.24
2017-06-12T04:14:28.989Z,21.25
2017-06-12T04:15:37.947Z,21.31
2017-06-12T04:16:46.909Z,21.28
2017-06-12T04:17:55.868Z,21.24
2017-06-12T04:19:04.825Z,21.25
2017-06-12T04:20:13.789Z,21.22
2017-06-12T04:21:22.745Z,21.17
2017-06-12T04:22:31.704Z,21.17
2017-06-12T04:23:40.665Z,21.17
2017-06-12T04:24:49.624Z,21.16
2017-06-12T04:25:58.581Z,21.14
2017-06-12T04:27:07.549Z,21.21
2017-06-12T04:28:16.508Z,21.16
2017-06-12T04:29:25.469Z,21.22
2017-06-12T04:30:34.428Z,21.24
2017-06-12T04:31:43.386Z,21.13
2017-06-12T04:32:52.348Z,21.17
2017-06-12T04:34:01.302Z,20.99
2017-06-12T04:35:10.521Z,21.06
2017-06-12T04:36:19.482Z,20.95
2017-06-12T04:37:28.440Z,21.01
2017-06-12T04:38:37.394Z,20.99
2017-06-12T04:39:46.352Z,20.98
2017-06-12T04:40:55.449Z,21.01
2017-06-12T04:42:04.492Z,20.92
2017-06-12T04:43:13.452Z,20.95
2017-06-12T04:44:22.415Z,20.87
2017-06-12T04:45:31.372Z,20.85
2017-06-12T04:46:40.653Z,20.84
2017-06-12T04:47:49.614Z,20.87
2017-06-12T04:48:58.572Z,20.76
2017-06-12T04:50:07.630Z,20.82
2017-06-12T04:51:16.673Z,20.8
2017-06-12T04:52:25.636Z,20.87
2017-06-12T04:53:34.601Z,20.89
2017-06-12T04:54:43.561Z,20.82
2017-06-12T04:55:52.522Z,20.92
2017-06-12T04:57:01.480Z,20.91
2017-06-12T04:58:10.487Z,20.82
2017-06-12T04:59:19.448Z,20.85
2017-06-12T05:00:28.409Z,20.87
2017-06-12T05:01:37.370Z,20.94
2017-06-12T05:02:46.358Z,20.84
2017-06-12T05:03:55.313Z,20.84
2017-06-12T05:05:04.278Z,20.91
2017-06-12T05:06:13.569Z,20.94
2017-06-12T05:07:22.849Z,21.01
2017-06-12T05:08:31.806Z,20.97
2017-06-12T05:09:40.764Z,20.98
2017-06-12T05:10:49.723Z,20.99
2017-06-12T05:11:58.682Z,21.01
2017-06-12T05:13:07.639Z,21.21
2017-06-12T05:14:16.595Z,21.12
2017-06-12T05:15:25.555Z,21.1
2017-06-12T05:16:34.514Z,21.13
2017-06-12T05:17:43.477Z,21.12
2017-06-12T05:18:52.440Z,21.1
2017-06-12T05:20:01.398Z,21.1
2017-06-12T05:21:10.364Z,21.22
2017-06-12T05:22:19.326Z,21.25
2017-06-12T05:23:28.281Z,21.28
2017-06-12T05:24:37.243Z,21.19
2017-06-12T05:25:46.230Z,21.24
2017-06-12T05:26:55.196Z,21.25
2017-06-12T05:28:04.158Z,21.24
2017-06-12T05:29:13.139Z,21.34
2017-06-12T05:30:22.099Z,21.32
2017-06-12T05:31:31.057Z,21.29
2017-06-12T05:32:40.071Z,21.38
2017-06-12T05:33:49.027Z,21.37
2017-06-12T05:34:57.983Z,21.28
2017-06-12T05:36:06.949Z,21.25
2017-06-12T05:37:15.911Z,21.25
2017-06-12T05:38:24.865Z,21.35
2017-06-12T05:39:33.827Z,21.37
2017-06-12T05:40:42.788Z,21.38
2017-06-12T05:41:51.747Z,21.34
2017-06-12T05:43:00.707Z,21.34
2017-06-12T05:44:09.669Z,21.43
2017-06-12T05:45:18.627Z,21.28
2017-06-12T05:46:27.582Z,21.25
2017-06-12T05:47:36.539Z,21.24
2017-06-12T05:48:45.582Z,21.29
2017-06-12T05:49:54.539Z,21.24
2017-06-12T05:51:03.498Z,21.29
2017-06-12T05:52:12.463Z,21.37
2017-06-12T05:53:21.450Z,21.34
2017-06-12T05:54:30.408Z,21.29
2017-06-12T05:55:39.415Z,21.19
2017-06-12T05:56:48.461Z,21.21
2017-06-12T05:57:57.448Z,21.22
2017-06-12T05:59:06.398Z,21.07
2017-06-12T06:00:15.364Z,21.14
2017-06-12T06:01:24.327Z,21.13
2017-06-12T06:02:33.289Z,21.13
2017-06-12T06:03:42.253Z,21.24
2017-06-12T06:04:51.213Z,21.13
2017-06-12T06:06:00.173Z,21.25
2017-06-12T06:07:09.131Z,21.25
2017-06-12T06:08:18.093Z,21.19
2017-06-12T06:09:27.049Z,21.14
2017-06-12T06:10:36.007Z,21.21
2017-06-12T06:11:44.966Z,21.27
2017-06-12T06:12:53.928Z,21.24
2017-06-12T06:14:02.889Z,21.14
2017-06-12T06:15:11.846Z,21.14
2017-06-12T06:16:20.810Z,21.17
2017-06-12T06:17:29.763Z,21.21
2017-06-12T06:18:38.721Z,21.17
2017-06-12T06:19:48.018Z,21.17
2017-06-12T06:20:56.976Z,21.19
2017-06-12T06:22:05.932Z,21.14
2017-06-12T06:23:14.888Z,21.22
2017-06-12T06:24:23.845Z,21.25
2017-06-12T06:25:32.810Z,21.17
2017-06-12T06:26:41.789Z,21.22
2017-06-12T06:27:50.751Z,21.17
2017-06-12T06:28:59.717Z,21.13
2017-06-12T06:30:08.677Z,21.14
2017-06-12T06:31:17.957Z,21.13
2017-06-12T06:32:26.931Z,21.13
2017-06-12T06:33:35.888Z,21.13
2017-06-12T06:34:44.847Z,21.16
2017-06-12T06:35:54.769Z,21.22
2017-06-12T06:37:03.947Z,21.22
2017-06-12T06:38:12.903Z,21.22
2017-06-12T06:39:21.863Z,21.29
2017-06-12T06:40:30.820Z,21.32
2017-06-12T06:41:39.919Z,21.19
2017-06-12T06:42:48.879Z,21.22
2017-06-12T06:43:57.842Z,21.22
2017-06-12T06:45:06.804Z,21.12
2017-06-12T06:46:15.767Z,21.16
2017-06-12T06:47:24.729Z,21.19
2017-06-12T06:48:33.776Z,21.28
2017-06-12T06:49:42.732Z,21.19
2017-06-12T06:50:51.779Z,21.35
2017-06-12T06:52:00.740Z,21.27
2017-06-12T06:53:10.007Z,21.24
2017-06-12T06:54:18.960Z,21.35
2017-06-12T06:55:27.929Z,21.32
2017-06-12T06:56:36.888Z,21.37
2017-06-12T06:57:46.898Z,21.43
2017-06-12T06:58:56.723Z,21.49
2017-06-12T07:00:05.686Z,21.44
2017-06-12T07:01:14.648Z,21.35
2017-06-12T07:02:23.614Z,21.29
2017-06-12T07:03:32.574Z,21.29
2017-06-12T07:04:41.833Z,21.19
2017-06-12T07:05:51.561Z,21.14
2017-06-12T07:07:00.526Z,21.14
2017-06-12T07:08:09.490Z,21.17
2017-06-12T07:09:18.448Z,21.27
2017-06-12T07:10:27.457Z,21.29
2017-06-12T07:11:36.556Z,21.37
2017-06-12T07:12:45.659Z,21.34
2017-06-12T07:13:54.874Z,21.32
2017-06-12T07:15:04.039Z,21.37
2017-06-12T07:16:13.029Z,21.38
2017-06-12T07:17:22.103Z,21.44
2017-06-12T07:18:31.239Z,21.43
2017-06-12T07:19:40.283Z,21.42
2017-06-12T07:20:49.336Z,21.4
2017-06-12T07:21:58.411Z,21.34
2017-06-12T07:23:07.481Z,21.4
2017-06-12T07:24:16.445Z,21.47
2017-06-12T07:25:25.434Z,21.53
2017-06-12T07:26:34.620Z,21.68
2017-06-12T07:27:44.099Z,21.72
2017-06-12T07:28:53.061Z,21.82
2017-06-12T07:30:02.024Z,21.91
2017-06-12T07:31:11.307Z,21.91
2017-06-12T07:32:20.947Z,21.86
2017-06-12T07:33:29.950Z,21.94
2017-06-12T07:34:38.967Z,22.02
2017-06-12T07:35:47.927Z,21.99
2017-06-12T07:36:56.892Z,22
2017-06-12T07:38:06.088Z,21.96
2017-06-12T07:39:15.140Z,22
2017-06-12T07:40:24.254Z,22
2017-06-12T07:41:33.300Z,21.99
2017-06-12T07:42:42.319Z,22.06
2017-06-12T07:43:51.882Z,22
2017-06-12T07:45:04.068Z,21.99
2017-06-12T07:46:15.731Z,22.07
2017-06-12T07:47:24.727Z,22.05
2017-06-12T07:48:33.699Z,22.03
2017-06-12T07:49:42.659Z,22.02
2017-06-12T07:50:51.730Z,22.12
2017-06-12T07:52:00.808Z,22.12
2017-06-12T07:53:09.942Z,22.21
2017-06-12T07:54:18.904Z,22.15
2017-06-12T07:55:27.871Z,22.2
2017-06-12T07:56:36.883Z,22.21
2017-06-12T07:57:45.927Z,22.28
2017-06-12T07:58:54.887Z,22.27
2017-06-12T08:00:03.850Z,22.24
2017-06-12T08:01:12.991Z,22.12
2017-06-12T08:02:22.177Z,22.25
2017-06-12T08:03:31.301Z,22.12
2017-06-12T08:04:40.306Z,22.14
2017-06-12T08:05:49.475Z,22.31
2017-06-12T08:06:58.431Z,22.27
2017-06-12T08:08:07.512Z,22.33
2017-06-12T08:09:16.503Z,22.35
2017-06-12T08:10:25.462Z,22.35
2017-06-12T08:11:34.422Z,22.49
2017-06-12T08:12:43.379Z,22.47
2017-06-12T08:13:52.340Z,22.45
2017-06-12T08:15:01.299Z,22.55
2017-06-12T08:16:10.266Z,22.46
2017-06-12T08:17:19.262Z,22.51
2017-06-12T08:18:28.221Z,22.43
2017-06-12T08:19:37.229Z,22.51
2017-06-12T08:20:46.189Z,22.46
2017-06-12T08:21:55.149Z,22.39
2017-06-12T08:23:04.347Z,22.47
2017-06-12T08:24:13.303Z,22.36
2017-06-12T08:25:22.266Z,22.36
2017-06-12T08:26:31.225Z,22.36
2017-06-12T08:27:40.511Z,22.35
2017-06-12T08:28:49.468Z,22.37
2017-06-12T08:29:58.426Z,22.47
2017-06-12T08:31:07.436Z,22.51
2017-06-12T08:32:16.524Z,22.64
2017-06-12T08:33:25.817Z,22.76
2017-06-12T08:34:34.779Z,22.7
2017-06-12T08:35:44.151Z,22.88
2017-06-12T08:36:53.107Z,22.9
2017-06-12T08:38:02.151Z,22.7
2017-06-12T08:39:11.117Z,22.82
2017-06-12T08:40:20.079Z,22.73
2017-06-12T08:41:29.037Z,22.88
2017-06-12T08:42:38.002Z,22.9
2017-06-12T08:43:47.064Z,23.01
2017-06-12T08:44:56.028Z,22.94
2017-06-12T08:46:04.991Z,22.9
2017-06-12T08:47:13.953Z,22.92
2017-06-12T08:48:22.917Z,23.1
2017-06-12T08:49:31.880Z,22.95
2017-06-12T08:50:41.003Z,23.09
2017-06-12T08:51:50.088Z,23.12
2017-06-12T08:52:59.072Z,23.2
2017-06-12T08:54:08.108Z,23.36
2017-06-12T08:55:17.086Z,23.38
2017-06-12T08:56:26.076Z,23.47
2017-06-12T08:57:35.059Z,23.38
2017-06-12T08:58:44.041Z,23.4
2017-06-12T08:59:53.169Z,23.43
2017-06-12T09:01:02.156Z,23.48
2017-06-12T09:02:11.221Z,23.5
2017-06-12T09:03:20.209Z,23.46
2017-06-12T09:04:29.194Z,23.47
2017-06-12T09:05:38.222Z,23.42
2017-06-12T09:06:47.206Z,23.38
2017-06-12T09:07:56.190Z,23.46
2017-06-12T09:09:05.272Z,23.6
2017-06-12T09:10:14.309Z,23.68
2017-06-12T09:11:23.289Z,23.58
2017-06-12T09:12:32.274Z,23.66
2017-06-12T09:13:41.259Z,23.69
2017-06-12T09:14:50.242Z,23.83
2017-06-12T09:15:59.226Z,23.8
2017-06-12T09:17:08.266Z,23.83
2017-06-12T09:18:17.266Z,23.87
2017-06-12T09:19:26.248Z,23.76
2017-06-12T09:20:35.221Z,23.68
2017-06-12T09:21:47.117Z,23.57
2017-06-12T09:23:00.334Z,23.47
2017-06-12T09:24:14.954Z,23.47
2017-06-12T09:25:23.913Z,23.5
2017-06-12T09:26:32.875Z,23.43
2017-06-12T09:27:41.836Z,23.57
2017-06-12T09:28:50.804Z,23.55
2017-06-12T09:30:00.098Z,23.46
2017-06-12T09:31:09.143Z,23.46
2017-06-12T09:32:18.100Z,23.33
2017-06-12T09:33:27.061Z,23.35
2017-06-12T09:34:36.109Z,23.32
2017-06-12T09:35:45.065Z,23.22
2017-06-12T09:36:54.104Z,23.2
2017-06-12T09:38:03.072Z,23.16
2017-06-12T09:39:12.180Z,23.15
2017-06-12T09:40:21.144Z,22.97
2017-06-12T09:41:30.108Z,23
2017-06-12T09:42:39.064Z,23.04
2017-06-12T09:43:48.030Z,22.98
2017-06-12T09:44:56.991Z,23.05
2017-06-12T09:46:05.951Z,23.13
2017-06-12T09:47:14.910Z,23.16
2017-06-12T09:48:24.194Z,23.22
2017-06-12T09:49:33.154Z,23.35
2017-06-12T09:50:42.112Z,23.42
2017-06-12T09:51:51.076Z,23.47
2017-06-12T09:53:00.040Z,23.43
2017-06-12T09:54:09.002Z,23.55
2017-06-12T09:55:17.966Z,23.58
2017-06-12T09:56:26.926Z,23.6
2017-06-12T09:57:35.938Z,23.69
2017-06-12T09:58:44.991Z,23.69
2017-06-12T09:59:54.132Z,23.72
2017-06-12T10:01:03.176Z,23.83
2017-06-12T10:02:12.136Z,23.79
2017-06-12T10:03:21.099Z,23.87
2017-06-12T10:04:30.063Z,23.88
2017-06-12T10:05:39.033Z,23.83
2017-06-12T10:06:47.994Z,23.66
2017-06-12T10:07:56.956Z,23.68
2017-06-12T10:09:06.324Z,23.61
2017-06-12T10:10:15.294Z,23.63
2017-06-12T10:11:24.254Z,23.72
2017-06-12T10:12:33.223Z,23.8
2017-06-12T10:13:42.181Z,23.78
2017-06-12T10:14:51.143Z,23.83
2017-06-12T10:16:00.192Z,23.87
2017-06-12T10:17:09.148Z,23.84
2017-06-12T10:18:18.179Z,23.91
2017-06-12T10:19:27.137Z,24.03
2017-06-12T10:20:36.185Z,23.98
2017-06-12T10:21:45.142Z,24.1
2017-06-12T10:22:54.107Z,24.08
2017-06-12T10:24:03.064Z,24.08
2017-06-12T10:25:12.025Z,24.22
2017-06-12T10:26:21.037Z,24.25
2017-06-12T10:27:30.001Z,24.3
2017-06-12T10:28:38.963Z,24.27
2017-06-12T10:29:47.932Z,24.27
2017-06-12T10:30:56.895Z,24.27
2017-06-12T10:32:05.863Z,24.28
2017-06-12T10:33:14.827Z,24.3
2017-06-12T10:34:23.788Z,24.28
2017-06-12T10:35:32.751Z,24.18
2017-06-12T10:36:41.708Z,24.15
2017-06-12T10:37:50.721Z,23.98
2017-06-12T10:39:00.017Z,23.97
2017-06-12T10:40:08.987Z,23.98
2017-06-12T10:41:18.269Z,23.9
2017-06-12T10:42:27.226Z,23.93
2017-06-12T10:43:36.185Z,23.87
2017-06-12T10:44:45.166Z,23.87
2017-06-12T10:45:54.133Z,23.84
2017-06-12T10:47:03.186Z,23.76
2017-06-12T10:48:12.155Z,23.7
2017-06-12T10:49:21.287Z,23.87
2017-06-12T10:50:30.247Z,23.97
2017-06-12T10:51:39.203Z,24.03
2017-06-12T10:52:48.162Z,24.12
2017-06-12T10:53:57.120Z,24.1
2017-06-12T10:55:06.078Z,24.12
2017-06-12T10:56:15.038Z,24.13
2017-06-12T10:57:24.000Z,24.09
2017-06-12T10:58:32.964Z,24.1
2017-06-12T10:59:41.926Z,24.08
2017-06-12T11:00:51.263Z,24.13
2017-06-12T11:02:00.223Z,24.16
2017-06-12T11:03:09.275Z,24.13
2017-06-12T11:04:18.244Z,24.16
2017-06-12T11:05:27.206Z,24.16
2017-06-12T11:06:36.232Z,24.08
2017-06-12T11:07:45.284Z,24.06
2017-06-12T11:08:54.332Z,24.02
2017-06-12T11:10:03.293Z,23.93
2017-06-12T11:11:12.255Z,23.93
2017-06-12T11:12:21.275Z,23.95
2017-06-12T11:13:30.240Z,24.05
2017-06-12T11:14:39.199Z,24.1
2017-06-12T11:15:48.161Z,24.15
2017-06-12T11:16:57.124Z,24.15
2017-06-12T11:18:06.088Z,24.22
2017-06-12T11:19:15.043Z,24.28
2017-06-12T11:20:24.001Z,24.25
2017-06-12T11:21:32.959Z,24.25
2017-06-12T11:22:41.917Z,24.28
2017-06-12T11:23:50.965Z,24.21
2017-06-12T11:24:59.927Z,24.18
2017-06-12T11:26:08.886Z,24.13
2017-06-12T11:27:17.853Z,24.13
2017-06-12T11:28:26.814Z,24.1
2017-06-12T11:29:35.821Z,24.1
2017-06-12T11:30:44.780Z,24.03
2017-06-12T11:31:53.746Z,23.95
2017-06-12T11:33:02.713Z,23.9
2017-06-12T11:34:11.679Z,23.94
2017-06-12T11:35:20.667Z,23.94
2017-06-12T11:36:29.634Z,24.02
2017-06-12T11:37:38.596Z,24
2017-06-12T11:38:47.664Z,24
2017-06-12T11:39:56.931Z,24
2017-06-12T11:41:05.895Z,23.97
2017-06-12T11:42:15.026Z,23.9
2017-06-12T11:43:24.125Z,23.91
2017-06-12T11:44:33.184Z,23.85
2017-06-12T11:45:42.168Z,23.88
2017-06-12T11:46:51.200Z,23.88
2017-06-12T11:48:00.158Z,23.88
2017-06-12T11:49:09.118Z,23.95
2017-06-12T11:50:18.081Z,23.97
2017-06-12T11:51:27.148Z,23.9
2017-06-12T11:52:36.111Z,23.88
2017-06-12T11:53:45.074Z,23.83
2017-06-12T11:54:54.071Z,23.69
2017-06-12T11:56:03.030Z,23.6
2017-06-12T11:57:11.996Z,23.58
2017-06-12T11:58:21.011Z,23.55
2017-06-12T11:59:29.970Z,23.53
2017-06-12T12:00:39.017Z,23.47
2017-06-12T12:01:47.977Z,23.38
2017-06-12T12:02:56.938Z,23.5
2017-06-12T12:04:05.899Z,23.47
2017-06-12T12:05:14.888Z,23.36
2017-06-12T12:06:23.849Z,23.33
2017-06-12T12:07:32.812Z,23.5
2017-06-12T12:08:41.771Z,23.43
2017-06-12T12:09:50.729Z,23.54
2017-06-12T12:10:59.777Z,23.55
2017-06-12T12:12:08.739Z,23.5
2017-06-12T12:13:17.697Z,23.48
2017-06-12T12:14:26.658Z,23.43
2017-06-12T12:15:35.755Z,23.48
2017-06-12T12:16:44.714Z,23.57
2017-06-12T12:17:53.675Z,23.6
2017-06-12T12:19:02.721Z,23.63
2017-06-12T12:20:11.689Z,23.54
2017-06-12T12:21:20.652Z,23.57
2017-06-12T12:22:29.935Z,23.57
2017-06-12T12:23:38.896Z,23.5
2017-06-12T12:24:47.941Z,23.47
2017-06-12T12:25:56.903Z,23.32
2017-06-12T12:27:05.869Z,23.33
2017-06-12T12:28:14.832Z,23.35
2017-06-12T12:29:23.792Z,23.39
2017-06-12T12:30:32.757Z,23.33
2017-06-12T12:31:41.722Z,23.42
2017-06-12T12:32:50.775Z,23.4
2017-06-12T12:33:59.740Z,23.43
2017-06-12T12:35:08.701Z,23.42
2017-06-12T12:36:17.661Z,23.46
2017-06-12T12:37:26.626Z,23.58
2017-06-12T12:38:35.657Z,23.61
2017-06-12T12:39:44.622Z,23.69
2017-06-12T12:40:53.587Z,23.78
2017-06-12T12:42:02.557Z,23.8
2017-06-12T12:43:11.525Z,23.83
2017-06-12T12:44:20.489Z,23.79
2017-06-12T12:45:29.454Z,23.6
2017-06-12T12:46:38.412Z,23.63
2017-06-12T12:47:47.374Z,23.54
2017-06-12T12:48:56.577Z,23.54
2017-06-12T12:50:05.624Z,23.4
2017-06-12T12:51:14.598Z,23.36
2017-06-12T12:52:23.561Z,23.39
2017-06-12T12:53:33.247Z,23.35
2017-06-12T12:54:42.983Z,23.31
2017-06-12T12:55:51.992Z,23.27
2017-06-12T12:57:01.040Z,23.31
2017-06-12T12:58:09.999Z,23.15
2017-06-12T12:59:18.958Z,23.17
2017-06-12T13:00:28.007Z,23.23
2017-06-12T13:01:36.969Z,23.32
2017-06-12T13:02:45.935Z,23.46
2017-06-12T13:03:54.911Z,23.48
2017-06-12T13:05:03.904Z,23.51
2017-06-12T13:06:12.893Z,23.58
2017-06-12T13:07:21.928Z,23.5
2017-06-12T13:08:30.909Z,23.55
2017-06-12T13:09:39.904Z,23.55
2017-06-12T13:10:49.204Z,23.55
2017-06-12T13:11:58.185Z,23.61
2017-06-12T13:13:07.167Z,23.69
2017-06-12T13:14:16.148Z,23.58
2017-06-12T13:15:25.188Z,23.54
2017-06-12T13:16:34.171Z,23.39
2017-06-12T13:17:43.196Z,23.33
2017-06-12T13:18:52.183Z,23.2
2017-06-12T13:20:01.174Z,23.32
2017-06-12T13:21:10.165Z,23.27
2017-06-12T13:22:19.147Z,23.09
2017-06-12T13:23:28.152Z,23.05
2017-06-12T13:24:37.186Z,23.05
2017-06-12T13:25:46.170Z,22.92
2017-06-12T13:26:55.163Z,22.95
2017-06-12T13:28:04.240Z,23.01
2017-06-12T13:29:13.229Z,23.13
2017-06-12T13:30:22.266Z,22.97
2017-06-12T13:31:31.566Z,23.1
2017-06-12T13:32:40.562Z,22.94
2017-06-12T13:33:49.637Z,22.98
2017-06-12T13:34:58.716Z,23.05
2017-06-12T13:36:07.719Z,23
2017-06-12T13:37:16.705Z,23.19
2017-06-12T13:38:25.684Z,23.22
2017-06-12T13:39:34.683Z,23.31
2017-06-12T13:40:43.756Z,23.31
2017-06-12T13:41:52.729Z,23.27
2017-06-12T13:43:01.744Z,23.27
2017-06-12T13:44:10.725Z,23.23
2017-06-12T13:45:19.713Z,23.13
2017-06-12T13:46:28.704Z,23.05
2017-06-12T13:47:37.733Z,22.98
2017-06-12T13:48:46.713Z,23
2017-06-12T13:49:55.693Z,22.92
2017-06-12T13:51:04.689Z,22.94
2017-06-12T13:52:13.675Z,22.88
2017-06-12T13:53:22.712Z,22.88
2017-06-12T13:54:31.692Z,22.8
2017-06-12T13:55:40.675Z,22.79
2017-06-12T13:56:49.661Z,22.85
2017-06-12T13:57:58.644Z,22.77
2017-06-12T13:59:07.635Z,22.72
2017-06-12T14:00:16.711Z,22.7
2017-06-12T14:01:25.786Z,22.76
2017-06-12T14:02:34.747Z,22.7
2017-06-12T14:03:43.964Z,22.79
2017-06-12T14:04:53.074Z,22.86
2017-06-12T14:06:02.234Z,22.97
2017-06-12T14:07:11.199Z,22.95
2017-06-12T14:08:20.157Z,22.92
2017-06-12T14:09:29.118Z,23.04
2017-06-12T14:10:38.136Z,23.01
2017-06-12T14:11:47.168Z,22.94
2017-06-12T14:12:56.130Z,22.88
2017-06-12T14:14:05.096Z,22.97
2017-06-12T14:15:14.062Z,23
2017-06-12T14:16:23.023Z,22.9
2017-06-12T14:17:31.999Z,22.91
2017-06-12T14:18:40.961Z,22.91
2017-06-12T14:19:49.923Z,22.91
2017-06-12T14:20:58.881Z,22.83
2017-06-12T14:22:07.841Z,22.91
2017-06-12T14:23:16.804Z,22.9
2017-06-12T14:24:25.770Z,22.91
2017-06-12T14:25:34.732Z,22.92
2017-06-12T14:26:43.693Z,22.77
2017-06-12T14:27:52.977Z,22.88
2017-06-12T14:29:01.939Z,22.86
2017-06-12T14:30:10.988Z,22.86
2017-06-12T14:31:19.947Z,22.88
2017-06-12T14:32:28.905Z,22.8
2017-06-12T14:33:38.199Z,22.86
2017-06-12T14:34:47.161Z,22.95
2017-06-12T14:35:56.126Z,22.95
2017-06-12T14:37:05.088Z,23
2017-06-12T14:38:14.050Z,22.97
2017-06-12T14:39:23.056Z,23
2017-06-12T14:40:32.017Z,23.07
2017-06-12T14:41:40.985Z,23.09
2017-06-12T14:42:50.032Z,22.95
2017-06-12T14:43:58.992Z,22.91
2017-06-12T14:45:07.959Z,22.86
2017-06-12T14:46:16.921Z,22.88
2017-06-12T14:47:25.889Z,22.94
2017-06-12T14:48:34.940Z,23.09
2017-06-12T14:49:44.058Z,23.09
2017-06-12T14:50:53.195Z,23.12
2017-06-12T14:52:02.308Z,23.16
2017-06-12T14:53:11.421Z,23.19